createdAt,value
2022-09-23T00:02:42.913Z,7.78
2022-09-23T00:07:44.770Z,8.93
2022-09-23T00:12:46.464Z,8.73
2022-09-23T00:17:48.113Z,8.63
2022-09-23T00:22:49.747Z,8.68
2022-09-23T00:27:51.372Z,7.90
2022-09-23T00:32:53.056Z,9.38
2022-09-23T00:37:54.702Z,9.48
2022-09-23T00:42:56.354Z,9.05
2022-09-23T00:48:02.720Z,10.23
2022-09-23T00:53:11.281Z,9.15
2022-09-23T00:58:17.755Z,10.05
2022-09-23T01:03:19.800Z,8.88
2022-09-23T01:08:23.510Z,8.65
2022-09-23T01:13:32.183Z,7.57
2022-09-23T01:19:08.783Z,6.97
2022-09-23T01:24:53.001Z,7.70
2022-09-23T01:30:14.126Z,11.20
2022-09-23T01:35:17.093Z,9.20
2022-09-23T01:40:47.964Z,8.00
2022-09-23T01:45:54.485Z,8.05
2022-09-23T01:51:08.516Z,7.40
2022-09-23T01:56:28.724Z,8.23
2022-09-23T02:01:37.720Z,7.65
2022-09-23T02:06:48.566Z,8.18
2022-09-23T02:11:53.834Z,14.43
2022-09-23T02:17:01.324Z,8.30
2022-09-23T02:22:11.968Z,9.38
2022-09-23T02:27:47.324Z,10.63
2022-09-23T02:32:54.156Z,8.80
2022-09-23T02:38:26.703Z,8.23
2022-09-23T02:43:39.137Z,10.57
2022-09-23T02:49:07.251Z,8.13
2022-09-23T02:54:14.541Z,8.70
2022-09-23T02:59:20.909Z,8.82
2022-09-23T03:04:31.508Z,10.00
2022-09-23T03:09:41.130Z,10.52
2022-09-23T03:14:57.593Z,9.13
2022-09-23T03:20:09.297Z,9.10
2022-09-23T03:25:15.996Z,10.30
2022-09-23T03:30:18.452Z,9.18
2022-09-23T03:35:24.072Z,9.27
2022-09-23T03:40:39.248Z,9.30
2022-09-23T03:45:42.560Z,8.10
2022-09-23T03:50:44.534Z,13.82
2022-09-23T03:55:46.567Z,10.25
2022-09-23T04:00:49.671Z,8.63
2022-09-23T04:05:51.807Z,8.68
2022-09-23T04:10:58.602Z,8.40
2022-09-23T04:16:00.329Z,9.45
2022-09-23T04:21:02.455Z,10.15
2022-09-23T04:26:05.767Z,8.60
2022-09-23T04:31:09.527Z,10.13
2022-09-23T04:36:11.255Z,10.05
2022-09-23T04:41:13.509Z,11.23
2022-09-23T04:46:16.321Z,10.88
2022-09-23T04:51:20.872Z,8.60
2022-09-23T04:56:24.994Z,16.63
2022-09-23T05:01:29.067Z,19.33
2022-09-23T05:06:32.947Z,12.93
2022-09-23T05:11:35.129Z,12.68
2022-09-23T05:16:36.857Z,14.88
2022-09-23T05:21:39.096Z,11.48
2022-09-23T05:26:40.852Z,9.48
2022-09-23T05:31:42.636Z,10.38
2022-09-23T05:36:44.452Z,12.15
2022-09-23T05:41:46.438Z,11.77
2022-09-23T05:46:48.209Z,11.10
2022-09-23T05:51:49.930Z,14.05
2022-09-23T05:56:51.550Z,10.30
2022-09-23T06:01:56.296Z,10.77
2022-09-23T06:07:02.808Z,16.05
2022-09-23T06:12:06.318Z,13.25
2022-09-23T06:17:08.015Z,12.05
2022-09-23T06:22:11.033Z,11.38
2022-09-23T06:27:13.394Z,14.93
2022-09-23T06:32:15.006Z,9.63
2022-09-23T06:37:20.170Z,11.73
2022-09-23T06:42:22.192Z,9.80
2022-09-23T06:47:23.806Z,9.63
2022-09-23T06:52:26.572Z,7.88
2022-09-23T06:57:33.065Z,9.27
2022-09-23T07:02:35.375Z,5.63
2022-09-23T07:07:38.226Z,7.13
2022-09-23T07:12:39.845Z,7.10
2022-09-23T07:17:42.900Z,7.10
2022-09-23T07:22:50.026Z,5.78
2022-09-23T07:27:51.725Z,5.53
2022-09-23T07:32:53.710Z,5.47
2022-09-23T07:37:55.443Z,5.50
2022-09-23T07:42:57.091Z,8.15
2022-09-23T07:47:58.789Z,5.22
2022-09-23T07:53:02.907Z,4.47
2022-09-23T07:58:04.810Z,6.38
2022-09-23T08:03:06.480Z,4.85
2022-09-23T08:08:08.531Z,4.65
2022-09-23T08:13:11.047Z,5.22
2022-09-23T08:18:12.641Z,3.70
2022-09-23T08:23:15.706Z,4.35
2022-09-23T08:28:19.077Z,5.60
2022-09-23T08:33:23.512Z,4.13
2022-09-23T08:38:25.577Z,5.65
2022-09-23T08:43:29.704Z,5.53
2022-09-23T08:48:36.323Z,3.63
2022-09-23T08:53:38.384Z,4.85
2022-09-23T08:58:58.248Z,4.97
2022-09-23T09:04:40.248Z,4.70
2022-09-23T09:10:03.392Z,4.00
2022-09-23T09:15:24.680Z,5.07
2022-09-23T09:20:59.784Z,5.07
2022-09-23T09:26:03.127Z,3.33
2022-09-23T09:31:28.652Z,5.00
2022-09-23T09:37:02.239Z,6.03
2022-09-23T09:42:07.473Z,5.32
2022-09-23T09:47:31.652Z,5.15
2022-09-23T09:52:33.421Z,4.00
2022-09-23T09:57:42.680Z,6.78
2022-09-23T10:02:44.902Z,6.70
2022-09-23T10:07:49.417Z,3.90
2022-09-23T10:12:52.169Z,4.93
2022-09-23T10:17:54.354Z,4.90
2022-09-23T10:22:56.710Z,4.72
2022-09-23T10:27:58.399Z,5.05
2022-09-23T10:33:00.094Z,5.45
2022-09-23T10:38:01.839Z,3.65
2022-09-23T10:43:55.837Z,3.85
2022-09-23T10:49:12.331Z,4.30
2022-09-23T10:54:21.846Z,4.22
2022-09-23T10:59:56.194Z,3.90
2022-09-23T11:05:19.795Z,5.35
2022-09-23T11:10:48.636Z,3.55
2022-09-23T11:16:08.780Z,4.00
2022-09-23T11:21:32.121Z,3.22
2022-09-23T11:27:05.212Z,3.22
2022-09-23T11:32:40.600Z,3.42
2022-09-23T11:38:10.833Z,3.78
2022-09-23T11:43:25.692Z,4.50
2022-09-23T11:48:35.065Z,2.65
2022-09-23T11:53:36.646Z,2.00
2022-09-23T11:58:53.979Z,2.15
2022-09-23T12:04:26.031Z,4.70
2022-09-23T12:09:57.618Z,3.55
2022-09-23T12:15:17.620Z,2.08
2022-09-23T12:21:05.194Z,2.53
2022-09-23T12:26:18.412Z,3.28
2022-09-23T12:31:30.605Z,2.30
2022-09-23T12:36:35.303Z,2.50
2022-09-23T12:41:41.354Z,3.97
2022-09-23T12:46:45.882Z,2.75
2022-09-23T12:52:12.564Z,3.25
2022-09-23T12:57:39.947Z,4.85
2022-09-23T13:02:47.704Z,1.75
2022-09-23T13:07:50.884Z,1.92
2022-09-23T13:12:54.359Z,1.75
2022-09-23T13:18:20.745Z,1.83
2022-09-23T13:23:32.929Z,2.78
2022-09-23T13:28:53.695Z,3.28
2022-09-23T13:34:02.820Z,1.92
2022-09-23T13:39:24.490Z,2.28
2022-09-23T13:44:28.709Z,3.30
2022-09-23T13:49:35.131Z,3.72
2022-09-23T13:54:49.254Z,3.33
2022-09-23T13:59:51.265Z,1.52
2022-09-23T14:05:28.952Z,2.55
2022-09-23T14:10:31.276Z,2.10
2022-09-23T14:15:37.145Z,4.22
2022-09-23T14:20:50.157Z,2.17
2022-09-23T14:25:53.072Z,2.65
2022-09-23T14:30:57.771Z,2.15
2022-09-23T14:36:33.810Z,1.70
2022-09-23T14:41:38.690Z,3.15
2022-09-23T14:46:50.079Z,2.42
2022-09-23T14:52:02.789Z,1.55
2022-09-23T14:57:31.784Z,2.47
2022-09-23T15:02:36.478Z,2.63
2022-09-23T15:07:38.569Z,3.85
2022-09-23T15:12:41.263Z,2.63
2022-09-23T15:17:43.631Z,2.83
2022-09-23T15:22:50.588Z,1.83
2022-09-23T15:28:03.039Z,8.65
2022-09-23T15:33:05.420Z,3.00
2022-09-23T15:38:09.411Z,1.92
2022-09-23T15:43:24.414Z,2.20
2022-09-23T15:48:39.322Z,1.88
2022-09-23T15:53:41.057Z,2.58
2022-09-23T15:58:42.797Z,5.22
2022-09-23T16:03:44.425Z,2.70
2022-09-23T16:08:46.895Z,7.80
2022-09-23T16:13:48.623Z,5.35
2022-09-23T16:18:53.385Z,3.85
2022-09-23T16:23:57.239Z,5.07
2022-09-23T16:28:59.654Z,5.68
2022-09-23T16:34:02.244Z,5.07
2022-09-23T16:39:07.997Z,4.07
2022-09-23T16:44:10.675Z,7.97
2022-09-23T16:49:12.467Z,8.60
2022-09-23T16:54:14.216Z,13.30
2022-09-23T16:59:16.592Z,10.43
2022-09-23T17:04:19.436Z,10.80
2022-09-23T17:09:23.249Z,10.90
2022-09-23T17:14:26.424Z,16.92
2022-09-23T17:19:28.173Z,12.70
2022-09-23T17:24:29.815Z,14.43
2022-09-23T17:29:31.471Z,9.32
2022-09-23T17:34:33.399Z,8.95
2022-09-23T17:39:35.159Z,8.50
2022-09-23T17:44:36.791Z,9.70
2022-09-23T17:49:38.419Z,9.32
2022-09-23T17:54:40.031Z,7.32
2022-09-23T17:59:41.702Z,11.02
2022-09-23T18:04:43.332Z,9.77
2022-09-23T18:09:45.052Z,11.52
2022-09-23T18:14:48.253Z,11.32
2022-09-23T18:19:50.294Z,12.57
2022-09-23T18:24:51.884Z,13.48
2022-09-23T18:29:53.604Z,11.60
2022-09-23T18:34:55.388Z,12.70
2022-09-23T18:39:57.150Z,12.30
2022-09-23T18:44:58.818Z,10.60
2022-09-23T18:50:18.942Z,10.05
2022-09-23T18:55:20.561Z,12.48
2022-09-23T19:00:22.200Z,10.13
2022-09-23T19:05:23.930Z,10.82
2022-09-23T19:10:25.567Z,11.02
2022-09-23T19:15:27.223Z,9.82
2022-09-23T19:20:29.092Z,10.65
2022-09-23T19:25:30.686Z,8.90
2022-09-23T19:30:32.392Z,10.32
2022-09-23T19:35:34.031Z,10.93
2022-09-23T19:40:37.108Z,10.20
2022-09-23T19:45:39.143Z,10.25
2022-09-23T19:50:41.485Z,8.77
2022-09-23T19:55:44.220Z,10.85
2022-09-23T20:00:45.887Z,9.85
2022-09-23T20:05:57.794Z,12.65
2022-09-23T20:10:59.421Z,9.57
2022-09-23T20:16:01.408Z,13.98
2022-09-23T20:21:03.953Z,9.57
2022-09-23T20:26:24.949Z,7.20
2022-09-23T20:31:28.517Z,9.70
2022-09-23T20:36:30.185Z,7.30
2022-09-23T20:41:37.260Z,6.68
2022-09-23T20:46:41.881Z,7.43
2022-09-23T20:51:48.105Z,10.23
2022-09-23T20:56:49.810Z,6.80
2022-09-23T21:01:55.422Z,8.73
2022-09-23T21:06:58.121Z,9.20
2022-09-23T21:11:59.845Z,8.73
2022-09-23T21:17:01.466Z,8.50
2022-09-23T21:22:03.158Z,8.98
2022-09-23T21:27:04.827Z,9.65
2022-09-23T21:32:06.614Z,9.98
2022-09-23T21:37:08.325Z,10.02
2022-09-23T21:42:12.004Z,9.63
2022-09-23T21:47:13.748Z,8.77
2022-09-23T21:52:15.561Z,10.15
2022-09-23T21:57:17.235Z,11.35
2022-09-23T22:02:18.907Z,12.95
2022-09-23T22:07:20.559Z,12.23
2022-09-23T22:12:22.165Z,9.35
2022-09-23T22:17:23.855Z,11.23
2022-09-23T22:22:25.592Z,9.35
2022-09-23T22:27:27.294Z,11.90
2022-09-23T22:32:40.945Z,10.02
2022-09-23T22:37:42.572Z,9.85
2022-09-23T22:42:44.714Z,11.40
2022-09-23T22:47:46.338Z,10.40
2022-09-23T22:52:47.969Z,10.80
2022-09-23T22:57:51.512Z,9.68
2022-09-23T23:02:54.557Z,8.63
2022-09-23T23:07:57.496Z,9.48
2022-09-23T23:12:59.134Z,9.00
2022-09-23T23:18:00.760Z,9.75
2022-09-23T23:23:02.702Z,9.23
2022-09-23T23:28:05.747Z,8.40
2022-09-23T23:33:07.436Z,9.15
2022-09-23T23:38:11.215Z,11.10
2022-09-23T23:43:13.374Z,9.88
2022-09-23T23:48:15.000Z,11.32
2022-09-23T23:53:19.214Z,9.00
2022-09-23T23:58:20.891Z,9.35
